KJAX/JAX METAR and TAF weather

Enter ICAO airport designator
Station Type Date Time Source
KJAX METAR 2019/06/17 05:56 UTC NOAA

KJAX 170556Z 18004KT 10SM BKN250 23/22 A3003 RMK AO2 SLP169 T02330222 10278 20233 58003


Station Type Date Time Source
KJAX Decoded METAR 2019/06/17 05:56 UTC NOAA

JACKSONVILLE INTERNATIONAL, FL, United States (KJAX) 30-30N 81-42W 7M
Jun 17, 2019 - 01:56 AM EDT / 2019.06.17 0556 UTC
Wind: from the S (180 degrees) at 5 MPH (4 KT):0
Visibility: 10 mile(s):0
Sky conditions: mostly cloudy
Temperature: 73.9 F (23.3 C)
Dew Point: 72.0 F (22.2 C)
Relative Humidity: 93%
Pressure (altimeter): 30.03 in. Hg (1016 hPa)
Pressure tendency: 0.01 inches (0.3 hPa) lower than three hours ago
ob: KJAX 170556Z 18004KT 10SM BKN250 23/22 A3003 RMK AO2 SLP169 T02330222 10278 20233 58003
cycle: 6

Station Type Date Time Source
KJAX TAF 2019/06/17 06:42 UTC NOAA

TAF KJAX 170540Z 1706/1806 00000KT P6SM FEW150 SCT250
FM171300 17005KT P6SM SCT015 SCT045 SCT200
FM171600 17008KT P6SM VCTS SCT035CB SCT090 BKN150 PROB30 1716/1720 14015G25KT 3SM +TSRA BR SCT020 BKN030CB OVC070
FM172000 12011KT P6SM VCSH SCT025 BKN090 OVC150
FM180000 12008KT P6SM FEW015 SCT150 BKN250

Example: see airport list